Share

Chişinău, Republica Moldova

Chisinau (LUKK) Elev 400 ft | 46.93 °N, 28.93 °E | Change Station

Current weather conditions updated 12 minutes ago

Mostly Cloudy
Cer în general noros
48 °F
Feels Like 48 °F
N
4
Vânt variabil Vânt from NNV
Soarele răsare la 6:13 AM
Soarele apune la 7:55 PM
Luna Lună în descreştere

Today is forecast to be Much Warmer than yesterday.

Presiunea 30.06 inch
Vizibilitatea 3.1 mile
Nori Nori risipiţi 400 ft
Cer în general noros 1300 ft
Punctul de rouă 45 °F
Umiditatea 87%
Precipitaţii 0.00 inch
Adâncimea zăpezii Not available.
UV 0 out of 16
Pollen Not available.
Calitatea aerului Not available.
Flu Activity Not available.
METAR LUKK 170130Z 34003KT 5000 BR SCT004 BKN013 09/07 Q1018 R26/110065 NOSIG

More Conditions Fewer Conditions

Presiunea 30.06 inch
Vizibilitatea 3.1 mile
Nori Nori risipiţi 400 ft
Cer în general noros 1300 ft
Punctul de rouă 45 °F
Umiditatea 87%
Precipitaţii 0.00 inch
Adâncimea zăpezii Not available.
UV 0 out of 16
Pollen Not available.
Calitatea aerului Not available.
Flu Activity Not available.
METAR LUKK 170130Z 34003KT 5000 BR SCT004 BKN013 09/07 Q1018 R26/110065 NOSIG

More Conditions Fewer Conditions

10-Day Forecast

Almanac

Astronomie

Apr. 17, 2014 Răsărit Apus
Timpul Actual 6:13 AM EEST 7:55 PM EEST
Crepusculul Civil 5:41 AM EEST 8:27 PM EEST
Crepusculul nautic 5:01 AM EEST 9:06 PM EEST
Răsărit Astronomic 4:19 AM EEST 9:49 PM EEST
Luna 10:28 PM EEST 7:23 AM EEST
Durata zilei lumină 14h 46m
Lungimea zilei
13h 41m
Tomorrow will be 3m 13s longer.
Lună în descreştere, 96% of the Moon is Illuminated
Apr 16
Lună în descreştere
Apr 22
Ultimul pătrar
Apr 29
New
May 6
Primul pătrar
May 14
Lună plină

Community

  • symphony in blue....
    symphony in blue....
  • Dawn Surprise
    Dawn Surprise
  • Yucca delight
    Yucca delight
  • Sunset inside of the Ocean
    Sunset inside of the Ocean
  • Lunar eclipse 15 April 2014
    Lunar eclipse 15 April 2014

WunderPhotos

Upload Photos

1,701,793 photos uploaded!

WunderBlogs® & News

Nearby

Calitatea aerului

Not available.

Adâncimea zapezii

Not available.

Coastal Water Temperatures

Locul Temperatura
No Stations Reporting

Earthquake Activity

Oraş Distance Mag. Time & Date
No recent earthquake activity has been reported nearby.
Minimum magnitude displayed is 2.5.

Nearby Weather Stations

There are no personal weather stations in this area.

What do you think?

We're not finished. Please let us know what you like, what you don't like, and what you are still missing.